sensor_id;sensor_type;location;lat;lon;timestamp;pressure;altitude;pressure_sealevel;temperature;humidity
76404;BME280;65232;48.358;2.122;2023-10-19T00:00:22;98845.81;;;15.94;100.00
76404;BME280;65232;48.358;2.122;2023-10-19T00:00:49;98848.31;;;15.95;100.00
76404;BME280;65232;48.358;2.122;2023-10-19T00:01:16;98840.84;;;15.97;100.00
76404;BME280;65232;48.358;2.122;2023-10-19T00:01:42;98850.78;;;16.03;100.00
76404;BME280;65232;48.358;2.122;2023-10-19T00:02:08;98844.53;;;16.03;100.00
76404;BME280;65232;48.358;2.122;2023-10-19T00:02:34;98836.91;;;16.00;100.00
76404;BME280;65232;48.358;2.122;2023-10-19T00:03:02;98851.22;;;16.00;100.00
76404;BME280;65232;48.358;2.122;2023-10-19T00:03:28;98835.66;;;16.02;100.00
76404;BME280;65232;48.358;2.122;2023-10-19T00:03:53;98841.47;;;15.99;100.00
76404;BME280;65232;48.358;2.122;2023-10-19T00:04:21;98845.63;;;16.02;100.00
76404;BME280;65232;48.358;2.122;2023-10-19T00:04:47;98843.13;;;16.00;100.00
76404;BME280;65232;48.358;2.122;2023-10-19T00:05:14;98841.03;;;15.96;100.00
76404;BME280;65232;48.358;2.122;2023-10-19T00:05:41;98842.50;;;15.92;100.00
76404;BME280;65232;48.358;2.122;2023-10-19T00:06:07;98849.13;;;15.89;100.00
76404;BME280;65232;48.358;2.122;2023-10-19T00:06:32;98848.09;;;15.90;100.00
76404;BME280;65232;48.358;2.122;2023-10-19T00:06:58;98845.59;;;15.88;100.00
76404;BME280;65232;48.358;2.122;2023-10-19T00:07:24;98841.03;;;15.96;100.00
76404;BME280;65232;48.358;2.122;2023-10-19T00:07:49;98846.25;;;15.97;100.00
76404;BME280;65232;48.358;2.122;2023-10-19T00:08:15;98837.06;;;16.05;100.00
76404;BME280;65232;48.358;2.122;2023-10-19T00:08:45;98837.28;;;16.03;100.00
76404;BME280;65232;48.358;2.122;2023-10-19T00:09:11;98833.38;;;15.99;100.00
76404;BME280;65232;48.358;2.122;2023-10-19T00:09:36;98845.19;;;15.98;100.00
76404;BME280;65232;48.358;2.122;2023-10-19T00:10:02;98839.19;;;15.96;100.00
76404;BME280;65232;48.358;2.122;2023-10-19T00:10:29;98845.41;;;15.97;100.00
76404;BME280;65232;48.358;2.122;2023-10-19T00:11:00;98843.34;;;15.99;100.00
76404;BME280;65232;48.358;2.122;2023-10-19T00:11:33;98843.13;;;16.00;100.00
76404;BME280;65232;48.358;2.122;2023-10-19T00:12:01;98845.63;;;15.95;100.00
76404;BME280;65232;48.358;2.122;2023-10-19T00:12:27;98841.66;;;15.91;100.00
76404;BME280;65232;48.358;2.122;2023-10-19T00:12:53;98846.03;;;15.92;100.00
76404;BME280;65232;48.358;2.122;2023-10-19T00:13:25;98849.75;;;15.98;100.00
76404;BME280;65232;48.358;2.122;2023-10-19T00:13:50;98845.81;;;16.00;100.00
76404;BME280;65232;48.358;2.122;2023-10-19T00:14:16;98849.94;;;16.03;100.00
76404;BME280;65232;48.358;2.122;2023-10-19T00:14:42;98849.75;;;16.04;100.00
76404;BME280;65232;48.358;2.122;2023-10-19T00:15:07;98845.81;;;16.00;100.00
76404;BME280;65232;48.358;2.122;2023-10-19T00:15:35;98840.44;;;16.00;100.00
76404;BME280;65232;48.358;2.122;2023-10-19T00:16:21;98834.81;;;16.02;100.00
76404;BME280;65232;48.358;2.122;2023-10-19T00:16:54;98840.63;;;15.92;100.00
76404;BME280;65232;48.358;2.122;2023-10-19T00:17:25;98842.72;;;15.97;100.00
76404;BME280;65232;48.358;2.122;2023-10-19T00:17:52;98841.47;;;15.99;100.00
76404;BME280;65232;48.358;2.122;2023-10-19T00:18:19;98845.19;;;15.98;100.00
76404;BME280;65232;48.358;2.122;2023-10-19T00:18:49;98848.72;;;15.99;100.00
76404;BME280;65232;48.358;2.122;2023-10-19T00:19:15;98841.88;;;15.96;100.00
76404;BME280;65232;48.358;2.122;2023-10-19T00:19:44;98842.91;;;16.02;100.00
76404;BME280;65232;48.358;2.122;2023-10-19T00:20:23;98836.91;;;16.00;100.00
76404;BME280;65232;48.358;2.122;2023-10-19T00:21:02;98843.13;;;16.00;100.00
76404;BME280;65232;48.358;2.122;2023-10-19T00:21:47;98843.97;;;16.01;100.00
76404;BME280;65232;48.358;2.122;2023-10-19T00:22:16;98841.66;;;15.98;100.00
76404;BME280;65232;48.358;2.122;2023-10-19T00:22:46;98838.97;;;15.98;100.00
76404;BME280;65232;48.358;2.122;2023-10-19T00:23:13;98840.44;;;16.00;100.00
76404;BME280;65232;48.358;2.122;2023-10-19T00:23:39;98842.09;;;16.01;100.00
76404;BME280;65232;48.358;2.122;2023-10-19T00:24:05;98846.22;;;16.04;100.00
76404;BME280;65232;48.358;2.122;2023-10-19T00:24:30;98836.91;;;16.00;100.00
76404;BME280;65232;48.358;2.122;2023-10-19T00:24:56;98842.91;;;15.95;100.00
76404;BME280;65232;48.358;2.122;2023-10-19T00:25:24;98836.91;;;15.93;100.00
76404;BME280;65232;48.358;2.122;2023-10-19T00:25:50;98839.38;;;15.95;100.00
76404;BME280;65232;48.358;2.122;2023-10-19T00:26:19;98843.31;;;15.92;100.00
76404;BME280;65232;48.358;2.122;2023-10-19T00:26:58;98842.06;;;15.88;100.00
76404;BME280;65232;48.358;2.122;2023-10-19T00:27:30;98835.22;;;15.92;100.00
76404;BME280;65232;48.358;2.122;2023-10-19T00:27:56;98839.38;;;15.95;100.00
76404;BME280;65232;48.358;2.122;2023-10-19T00:28:26;98840.22;;;16.02;100.00
76404;BME280;65232;48.358;2.122;2023-10-19T00:28:53;98838.56;;;16.01;100.00
76404;BME280;65232;48.358;2.122;2023-10-19T00:29:21;98834.81;;;15.95;100.00
76404;BME280;65232;48.358;2.122;2023-10-19T00:30:06;98832.13;;;15.95;100.00
76404;BME280;65232;48.358;2.122;2023-10-19T00:30:31;98835.06;;;15.87;100.00
76404;BME280;65232;48.358;2.122;2023-10-19T00:31:01;98832.13;;;15.82;100.00
76404;BME280;65232;48.358;2.122;2023-10-19T00:31:32;98834.84;;;15.82;100.00
76404;BME280;65232;48.358;2.122;2023-10-19T00:32:02;98830.28;;;15.82;100.00
76404;BME280;65232;48.358;2.122;2023-10-19T00:32:28;98832.31;;;15.94;100.00
76404;BME280;65232;48.358;2.122;2023-10-19T00:32:54;98826.72;;;15.88;100.00
76404;BME280;65232;48.358;2.122;2023-10-19T00:33:21;98828.19;;;15.91;100.00
76404;BME280;65232;48.358;2.122;2023-10-19T00:33:47;98824.66;;;15.91;100.00
76404;BME280;65232;48.358;2.122;2023-10-19T00:34:12;98827.13;;;15.92;100.00
76404;BME280;65232;48.358;2.122;2023-10-19T00:34:38;98818.88;;;15.87;100.00
76404;BME280;65232;48.358;2.122;2023-10-19T00:35:05;98819.91;;;15.86;100.00
76404;BME280;65232;48.358;2.122;2023-10-19T00:36:33;98813.69;;;15.85;100.00
76404;BME280;65232;48.358;2.122;2023-10-19T00:37:00;98811.19;;;15.84;100.00
76404;BME280;65232;48.358;2.122;2023-10-19T00:37:32;98817.78;;;15.88;100.00
76404;BME280;65232;48.358;2.122;2023-10-19T00:38:05;98817.41;;;15.84;100.00
76404;BME280;65232;48.358;2.122;2023-10-19T00:39:03;98803.50;;;15.81;100.00
76404;BME280;65232;48.358;2.122;2023-10-19T00:39:39;98808.28;;;15.85;100.00
76404;BME280;65232;48.358;2.122;2023-10-19T00:40:19;98812.63;;;15.86;100.00
76404;BME280;65232;48.358;2.122;2023-10-19T00:40:53;98809.72;;;15.88;100.00
76404;BME280;65232;48.358;2.122;2023-10-19T00:41:25;98808.88;;;15.94;100.00
76404;BME280;65232;48.358;2.122;2023-10-19T00:41:57;98814.91;;;15.96;100.00
76404;BME280;65232;48.358;2.122;2023-10-19T00:42:23;98808.06;;;15.94;100.00
76404;BME280;65232;48.358;2.122;2023-10-19T00:42:55;98814.47;;;15.99;100.00
76404;BME280;65232;48.358;2.122;2023-10-19T00:43:30;98812.41;;;16.01;100.00
76404;BME280;65232;48.358;2.122;2023-10-19T00:44:00;98809.91;;;16.00;100.00
76404;BME280;65232;48.358;2.122;2023-10-19T00:44:28;98816.16;;;15.87;100.00
76404;BME280;65232;48.358;2.122;2023-10-19T00:45:07;98815.75;;;15.83;100.00
76404;BME280;65232;48.358;2.122;2023-10-19T00:45:38;98812.63;;;15.80;100.00
76404;BME280;65232;48.358;2.122;2023-10-19T00:46:05;98814.28;;;15.74;100.00
76404;BME280;65232;48.358;2.122;2023-10-19T00:46:35;98809.13;;;15.73;100.00
76404;BME280;65232;48.358;2.122;2023-10-19T00:47:06;98812.00;;;15.78;100.00
76404;BME280;65232;48.358;2.122;2023-10-19T00:47:38;98816.78;;;15.82;100.00
76404;BME280;65232;48.358;2.122;2023-10-19T00:48:08;98809.53;;;15.83;100.00
76404;BME280;65232;48.358;2.122;2023-10-19T00:48:36;98816.16;;;15.87;100.00
76404;BME280;65232;48.358;2.122;2023-10-19T00:49:02;98818.41;;;15.90;100.00
76404;BME280;65232;48.358;2.122;2023-10-19T00:49:31;98809.94;;;15.86;100.00
76404;BME280;65232;48.358;2.122;2023-10-19T00:49:56;98810.78;;;15.87;100.00
76404;BME280;65232;48.358;2.122;2023-10-19T00:50:28;98813.84;;;15.97;100.00
76404;BME280;65232;48.358;2.122;2023-10-19T00:50:57;98806.59;;;15.98;100.00
76404;BME280;65232;48.358;2.122;2023-10-19T00:51:36;98811.38;;;15.96;100.00
76404;BME280;65232;48.358;2.122;2023-10-19T00:52:02;98814.50;;;15.86;100.00
76404;BME280;65232;48.358;2.122;2023-10-19T00:52:28;98809.94;;;15.80;100.00
76404;BME280;65232;48.358;2.122;2023-10-19T00:52:57;98808.91;;;15.74;100.00
76404;BME280;65232;48.358;2.122;2023-10-19T00:53:24;98799.97;;;15.74;100.00
76404;BME280;65232;48.358;2.122;2023-10-19T00:53:54;98805.16;;;15.75;100.00
76404;BME280;65232;48.358;2.122;2023-10-19T00:54:26;98811.19;;;15.84;100.00
76404;BME280;65232;48.358;2.122;2023-10-19T00:54:56;98808.47;;;15.77;100.00
76404;BME280;65232;48.358;2.122;2023-10-19T00:55:24;98815.94;;;15.75;100.00
76404;BME280;65232;48.358;2.122;2023-10-19T00:55:52;98812.03;;;15.84;100.00
76404;BME280;65232;48.358;2.122;2023-10-19T00:56:19;98808.66;;;15.89;100.00
76404;BME280;65232;48.358;2.122;2023-10-19T00:56:46;98809.50;;;15.96;100.00
76404;BME280;65232;48.358;2.122;2023-10-19T00:57:15;98809.91;;;15.93;100.00
76404;BME280;65232;48.358;2.122;2023-10-19T00:57:45;98805.13;;;15.88;100.00
76404;BME280;65232;48.358;2.122;2023-10-19T00:58:15;98805.34;;;15.94;100.00
76404;BME280;65232;48.358;2.122;2023-10-19T00:58:43;98804.09;;;15.96;100.00
76404;BME280;65232;48.358;2.122;2023-10-19T00:59:13;98801.41;;;15.96;100.00
76404;BME280;65232;48.358;2.122;2023-10-19T00:59:40;98795.81;;;15.91;100.00
76404;BME280;65232;48.358;2.122;2023-10-19T01:00:19;98798.13;;;15.88;100.00
76404;BME280;65232;48.358;2.122;2023-10-19T01:00:56;98806.59;;;15.91;100.00
76404;BME280;65232;48.358;2.122;2023-10-19T01:01:28;98792.47;;;15.89;100.00
76404;BME280;65232;48.358;2.122;2023-10-19T01:01:54;98799.34;;;15.85;100.00
76404;BME280;65232;48.358;2.122;2023-10-19T01:02:23;98796.25;;;15.81;100.00
76404;BME280;65232;48.358;2.122;2023-10-19T01:02:51;98800.19;;;15.79;100.00
76404;BME280;65232;48.358;2.122;2023-10-19T01:03:18;98791.88;;;15.74;100.00
76404;BME280;65232;48.358;2.122;2023-10-19T01:03:43;98802.47;;;15.75;100.00
76404;BME280;65232;48.358;2.122;2023-10-19T01:04:12;98794.59;;;15.87;100.00
76404;BME280;65232;48.358;2.122;2023-10-19T01:04:48;98791.66;;;15.95;100.00
76404;BME280;65232;48.358;2.122;2023-10-19T01:05:21;98799.53;;;15.90;100.00
76404;BME280;65232;48.358;2.122;2023-10-19T01:05:49;98798.50;;;15.98;100.00
76404;BME280;65232;48.358;2.122;2023-10-19T01:06:15;98793.94;;;15.98;100.00
76404;BME280;65232;48.358;2.122;2023-10-19T01:06:44;98788.34;;;16.00;100.00
76404;BME280;65232;48.358;2.122;2023-10-19T01:07:10;98796.44;;;16.00;100.00
76404;BME280;65232;48.358;2.122;2023-10-19T01:07:47;98788.13;;;15.95;100.00
76404;BME280;65232;48.358;2.122;2023-10-19T01:08:20;98788.13;;;15.88;100.00
76404;BME280;65232;48.358;2.122;2023-10-19T01:08:50;98783.19;;;15.85;100.00
76404;BME280;65232;48.358;2.122;2023-10-19T01:09:16;98782.94;;;15.93;100.00
76404;BME280;65232;48.358;2.122;2023-10-19T01:09:45;98770.47;;;15.99;100.00
76404;BME280;65232;48.358;2.122;2023-10-19T01:10:12;98785.00;;;15.98;100.00
76404;BME280;65232;48.358;2.122;2023-10-19T01:10:45;98779.44;;;15.86;100.00
76404;BME280;65232;48.358;2.122;2023-10-19T01:11:12;98780.69;;;15.83;100.00
76404;BME280;65232;48.358;2.122;2023-10-19T01:11:43;98777.16;;;15.83;100.00
76404;BME280;65232;48.358;2.122;2023-10-19T01:12:15;98780.28;;;15.80;100.00
76404;BME280;65232;48.358;2.122;2023-10-19T01:13:04;98774.88;;;15.73;100.00
76404;BME280;65232;48.358;2.122;2023-10-19T01:13:31;98779.25;;;15.68;100.00
76404;BME280;65232;48.358;2.122;2023-10-19T01:13:59;98768.47;;;15.68;100.00
76404;BME280;65232;48.358;2.122;2023-10-19T01:14:25;98779.03;;;15.76;100.00
76404;BME280;65232;48.358;2.122;2023-10-19T01:15:02;98773.38;;;15.91;100.00
76404;BME280;65232;48.358;2.122;2023-10-19T01:15:32;98776.28;;;15.89;100.00
76404;BME280;65232;48.358;2.122;2023-10-19T01:16:02;98780.69;;;15.83;100.00
76404;BME280;65232;48.358;2.122;2023-10-19T01:16:29;98776.31;;;15.82;100.00
76404;BME280;65232;48.358;2.122;2023-10-19T01:16:54;98767.63;;;15.74;100.00
76404;BME280;65232;48.358;2.122;2023-10-19T01:17:22;98775.72;;;15.87;100.00
76404;BME280;65232;48.358;2.122;2023-10-19T01:17:51;98778.00;;;15.83;100.00
76404;BME280;65232;48.358;2.122;2023-10-19T01:18:24;98770.72;;;15.77;100.00
76404;BME280;65232;48.358;2.122;2023-10-19T01:18:54;98768.44;;;15.74;100.00
76404;BME280;65232;48.358;2.122;2023-10-19T01:19:20;98764.91;;;15.74;100.00
76404;BME280;65232;48.358;2.122;2023-10-19T01:19:46;98768.88;;;15.71;100.00
76404;BME280;65232;48.358;2.122;2023-10-19T01:20:16;98762.66;;;15.71;100.00
76404;BME280;65232;48.358;2.122;2023-10-19T01:20:53;98768.25;;;15.63;100.00
76404;BME280;65232;48.358;2.122;2023-10-19T01:21:22;98771.34;;;15.79;100.00
76404;BME280;65232;48.358;2.122;2023-10-19T01:21:50;98765.75;;;15.81;100.00
76404;BME280;65232;48.358;2.122;2023-10-19T01:22:24;98760.56;;;15.79;100.00
76404;BME280;65232;48.358;2.122;2023-10-19T01:22:57;98762.63;;;15.84;100.00
76404;BME280;65232;48.358;2.122;2023-10-19T01:23:34;98770.72;;;15.77;100.00
76404;BME280;65232;48.358;2.122;2023-10-19T01:24:00;98761.38;;;15.73;100.00
76404;BME280;65232;48.358;2.122;2023-10-19T01:24:26;98764.91;;;15.74;100.00
76404;BME280;65232;48.358;2.122;2023-10-19T01:25:07;98763.66;;;15.76;100.00
76404;BME280;65232;48.358;2.122;2023-10-19T01:26:24;98760.75;;;15.78;100.00
76404;BME280;65232;48.358;2.122;2023-10-19T01:26:53;98759.94;;;15.77;100.00
76404;BME280;65232;48.358;2.122;2023-10-19T01:27:19;98748.31;;;15.83;100.00
76404;BME280;65232;48.358;2.122;2023-10-19T01:27:45;98757.25;;;15.77;100.00
76404;BME280;65232;48.358;2.122;2023-10-19T01:28:12;98753.28;;;15.80;100.00
76404;BME280;65232;48.358;2.122;2023-10-19T01:28:42;98748.72;;;15.74;100.00
76404;BME280;65232;48.358;2.122;2023-10-19T01:29:13;98754.56;;;15.71;100.00
76404;BME280;65232;48.358;2.122;2023-10-19T01:29:40;98747.09;;;15.66;100.00
76404;BME280;65232;48.358;2.122;2023-10-19T01:30:07;98746.91;;;15.68;100.00
76404;BME280;65232;48.358;2.122;2023-10-19T01:30:35;98746.47;;;15.64;100.00
76404;BME280;65232;48.358;2.122;2023-10-19T01:31:01;98746.06;;;15.67;100.00
76404;BME280;65232;48.358;2.122;2023-10-19T01:31:31;98747.72;;;15.68;100.00
76404;BME280;65232;48.358;2.122;2023-10-19T01:31:57;98741.91;;;15.71;100.00
76404;BME280;65232;48.358;2.122;2023-10-19T01:32:31;98740.88;;;15.72;100.00
76404;BME280;65232;48.358;2.122;2023-10-19T01:32:56;98736.94;;;15.68;100.00
76404;BME280;65232;48.358;2.122;2023-10-19T01:33:22;98740.66;;;15.61;100.00
76404;BME280;65232;48.358;2.122;2023-10-19T01:33:49;98740.03;;;15.59;100.00
76404;BME280;65232;48.358;2.122;2023-10-19T01:34:15;98744.81;;;15.63;100.00
76404;BME280;65232;48.358;2.122;2023-10-19T01:34:45;98736.56;;;15.58;100.00
76404;BME280;65232;48.358;2.122;2023-10-19T01:35:10;98742.53;;;15.60;100.00
76404;BME280;65232;48.358;2.122;2023-10-19T01:35:36;98729.69;;;15.62;100.00
76404;BME280;65232;48.358;2.122;2023-10-19T01:36:21;98739.00;;;15.60;100.00
76404;BME280;65232;48.358;2.122;2023-10-19T01:36:47;98735.47;;;15.59;100.00
76404;BME280;65232;48.358;2.122;2023-10-19T01:37:15;98739.47;;;15.57;100.00
76404;BME280;65232;48.358;2.122;2023-10-19T01:37:40;98735.09;;;15.56;100.00
76404;BME280;65232;48.358;2.122;2023-10-19T01:38:06;98742.72;;;15.45;100.00
76404;BME280;65232;48.358;2.122;2023-10-19T01:38:33;98735.25;;;15.47;100.00
76404;BME280;65232;48.358;2.122;2023-10-19T01:38:59;98731.13;;;15.38;100.00
76404;BME280;65232;48.358;2.122;2023-10-19T01:39:34;98739.84;;;15.47;100.00
76404;BME280;65232;48.358;2.122;2023-10-19T01:40:06;98732.78;;;15.52;100.00
76404;BME280;65232;48.358;2.122;2023-10-19T01:40:32;98737.34;;;15.52;100.00
76404;BME280;65232;48.358;2.122;2023-10-19T01:40:58;98729.03;;;15.47;100.00
76404;BME280;65232;48.358;2.122;2023-10-19T01:41:27;98724.50;;;15.41;100.00
76404;BME280;65232;48.358;2.122;2023-10-19T01:41:53;98729.47;;;15.37;100.00
76404;BME280;65232;48.358;2.122;2023-10-19T01:42:18;98727.63;;;15.38;100.00
76404;BME280;65232;48.358;2.122;2023-10-19T01:42:44;98728.84;;;15.35;100.00
76404;BME280;65232;48.358;2.122;2023-10-19T01:43:10;98731.13;;;15.32;100.00
76404;BME280;65232;48.358;2.122;2023-10-19T01:43:45;98728.66;;;15.30;100.00
76404;BME280;65232;48.358;2.122;2023-10-19T01:44:11;98726.97;;;15.29;100.00
76404;BME280;65232;48.358;2.122;2023-10-19T01:44:40;98730.31;;;15.25;100.00
76404;BME280;65232;48.358;2.122;2023-10-19T01:45:07;98735.91;;;15.23;100.00
76404;BME280;65232;48.358;2.122;2023-10-19T01:45:36;98728.66;;;15.30;100.00
76404;BME280;65232;48.358;2.122;2023-10-19T01:46:02;98729.28;;;15.32;100.00
76404;BME280;65232;48.358;2.122;2023-10-19T01:46:31;98732.59;;;15.28;100.00
76404;BME280;65232;48.358;2.122;2023-10-19T01:47:00;98728.25;;;15.20;100.00
76404;BME280;65232;48.358;2.122;2023-10-19T01:47:26;98729.91;;;15.21;100.00
76404;BME280;65232;48.358;2.122;2023-10-19T01:47:54;98725.97;;;15.24;100.00
76404;BME280;65232;48.358;2.122;2023-10-19T01:48:20;98727.59;;;15.31;100.00
76404;BME280;65232;48.358;2.122;2023-10-19T01:48:54;98728.44;;;15.32;100.00
76404;BME280;65232;48.358;2.122;2023-10-19T01:49:22;98724.53;;;15.28;100.00
76404;BME280;65232;48.358;2.122;2023-10-19T01:49:53;98726.59;;;15.26;100.00
76404;BME280;65232;48.358;2.122;2023-10-19T01:50:19;98728.66;;;15.24;100.00
76404;BME280;65232;48.358;2.122;2023-10-19T01:50:45;98727.00;;;15.23;100.00
76404;BME280;65232;48.358;2.122;2023-10-19T01:51:11;98733.63;;;15.20;100.00
76404;BME280;65232;48.358;2.122;2023-10-19T01:51:36;98731.16;;;15.12;100.00
76404;BME280;65232;48.358;2.122;2023-10-19T01:52:05;98722.41;;;15.30;100.00
76404;BME280;65232;48.358;2.122;2023-10-19T01:52:31;98725.94;;;15.30;100.00
76404;BME280;65232;48.358;2.122;2023-10-19T01:52:57;98736.53;;;15.32;100.00
76404;BME280;65232;48.358;2.122;2023-10-19T01:53:23;98726.56;;;15.32;100.00
76404;BME280;65232;48.358;2.122;2023-10-19T01:53:52;98725.53;;;15.33;100.00
76404;BME280;65232;48.358;2.122;2023-10-19T01:54:18;98733.63;;;15.40;100.00
76404;BME280;65232;48.358;2.122;2023-10-19T01:54:48;98722.66;;;15.28;100.00
76404;BME280;65232;48.358;2.122;2023-10-19T01:55:13;98720.16;;;15.33;100.00
76404;BME280;65232;48.358;2.122;2023-10-19T01:55:39;98721.81;;;15.34;100.00
76404;BME280;65232;48.358;2.122;2023-10-19T01:56:04;98719.72;;;15.30;100.00
76404;BME280;65232;48.358;2.122;2023-10-19T01:56:31;98716.00;;;15.37;100.00
76404;BME280;65232;48.358;2.122;2023-10-19T01:56:58;98714.75;;;15.40;100.00
76404;BME280;65232;48.358;2.122;2023-10-19T01:57:25;98720.97;;;15.47;100.00
76404;BME280;65232;48.358;2.122;2023-10-19T01:57:51;98715.38;;;15.42;100.00
76404;BME280;65232;48.358;2.122;2023-10-19T01:58:16;98706.25;;;15.36;100.00
76404;BME280;65232;48.358;2.122;2023-10-19T01:58:44;98714.13;;;15.38;100.00
76404;BME280;65232;48.358;2.122;2023-10-19T01:59:11;98715.63;;;15.27;100.00
76404;BME280;65232;48.358;2.122;2023-10-19T01:59:39;98718.06;;;15.29;100.00
76404;BME280;65232;48.358;2.122;2023-10-19T02:00:05;98717.25;;;15.22;100.00
76404;BME280;65232;48.358;2.122;2023-10-19T02:00:37;98721.81;;;15.21;100.00
76404;BME280;65232;48.358;2.122;2023-10-19T02:01:05;98715.19;;;15.17;100.00
76404;BME280;65232;48.358;2.122;2023-10-19T02:01:37;98720.38;;;15.18;100.00
76404;BME280;65232;48.358;2.122;2023-10-19T02:02:03;98718.09;;;15.22;100.00
76404;BME280;65232;48.358;2.122;2023-10-19T02:02:28;98718.69;;;15.17;100.00
76404;BME280;65232;48.358;2.122;2023-10-19T02:02:57;98718.53;;;15.12;100.00
76404;BME280;65232;48.358;2.122;2023-10-19T02:03:23;98716.84;;;15.11;100.00
76404;BME280;65232;48.358;2.122;2023-10-19T02:03:49;98717.88;;;15.04;100.00
76404;BME280;65232;48.358;2.122;2023-10-19T02:04:20;98727.00;;;15.16;100.00
76404;BME280;65232;48.358;2.122;2023-10-19T02:04:49;98725.34;;;15.15;100.00
76404;BME280;65232;48.358;2.122;2023-10-19T02:05:16;98720.78;;;15.22;100.00
76404;BME280;65232;48.358;2.122;2023-10-19T02:05:44;98724.91;;;15.18;100.00
76404;BME280;65232;48.358;2.122;2023-10-19T02:06:10;98719.13;;;15.08;100.00
76404;BME280;65232;48.358;2.122;2023-10-19T02:06:45;98716.22;;;15.16;100.00
76404;BME280;65232;48.358;2.122;2023-10-19T02:07:15;98719.13;;;15.08;100.00
76404;BME280;65232;48.358;2.122;2023-10-19T02:07:43;98712.09;;;15.07;100.00
76404;BME280;65232;48.358;2.122;2023-10-19T02:08:08;98721.59;;;15.03;100.00
76404;BME280;65232;48.358;2.122;2023-10-19T02:08:34;98713.94;;;15.00;100.00
76404;BME280;65232;48.358;2.122;2023-10-19T02:09:07;98712.06;;;15.00;100.00
76404;BME280;65232;48.358;2.122;2023-10-19T02:09:48;98719.75;;;15.03;100.00
76404;BME280;65232;48.358;2.122;2023-10-19T02:10:14;98708.13;;;15.03;100.00
76404;BME280;65232;48.358;2.122;2023-10-19T02:10:46;98705.44;;;15.16;100.00
76404;BME280;65232;48.358;2.122;2023-10-19T02:11:12;98711.44;;;15.18;100.00
76404;BME280;65232;48.358;2.122;2023-10-19T02:11:48;98710.63;;;15.17;100.00
76404;BME280;65232;48.358;2.122;2023-10-19T02:12:15;98710.44;;;15.26;100.00
76404;BME280;65232;48.358;2.122;2023-10-19T02:12:43;98708.13;;;15.23;100.00
76404;BME280;65232;48.358;2.122;2023-10-19T02:13:11;98705.66;;;15.21;100.00
76404;BME280;65232;48.358;2.122;2023-10-19T02:13:40;98704.63;;;15.22;100.00
76404;BME280;65232;48.358;2.122;2023-10-19T02:14:06;98704.19;;;15.18;100.00
76404;BME280;65232;48.358;2.122;2023-10-19T02:14:40;98701.50;;;15.25;100.00
76404;BME280;65232;48.358;2.122;2023-10-19T02:15:07;98706.28;;;15.23;100.00
76404;BME280;65232;48.358;2.122;2023-10-19T02:15:34;98697.56;;;15.21;100.00
76404;BME280;65232;48.358;2.122;2023-10-19T02:16:02;98691.97;;;15.16;100.00
76404;BME280;65232;48.358;2.122;2023-10-19T02:16:28;98696.72;;;15.14;100.00
76404;BME280;65232;48.358;2.122;2023-10-19T02:16:56;98691.97;;;15.16;100.00
76404;BME280;65232;48.358;2.122;2023-10-19T02:17:22;98695.72;;;15.08;100.00
76404;BME280;65232;48.358;2.122;2023-10-19T02:17:49;98693.84;;;15.02;100.00
76404;BME280;65232;48.358;2.122;2023-10-19T02:18:15;98699.03;;;14.97;100.00
76404;BME280;65232;48.358;2.122;2023-10-19T02:18:43;98697.38;;;15.03;100.00
76404;BME280;65232;48.358;2.122;2023-10-19T02:19:10;98691.34;;;15.07;100.00
76404;BME280;65232;48.358;2.122;2023-10-19T02:19:35;98700.28;;;15.08;100.00
76404;BME280;65232;48.358;2.122;2023-10-19T02:20:01;98699.41;;;15.14;100.00
76404;BME280;65232;48.358;2.122;2023-10-19T02:20:38;98686.56;;;15.16;100.00
76404;BME280;65232;48.358;2.122;2023-10-19T02:21:06;98692.41;;;15.13;100.00
76404;BME280;65232;48.358;2.122;2023-10-19T02:21:31;98688.03;;;15.05;100.00
76404;BME280;65232;48.358;2.122;2023-10-19T02:22:00;98691.78;;;15.04;100.00
76404;BME280;65232;48.358;2.122;2023-10-19T02:22:28;98696.94;;;15.19;100.00
76404;BME280;65232;48.358;2.122;2023-10-19T02:22:56;98689.28;;;15.16;100.00
76404;BME280;65232;48.358;2.122;2023-10-19T02:23:22;98693.22;;;15.13;100.00
76404;BME280;65232;48.358;2.122;2023-10-19T02:23:48;98687.19;;;15.18;100.00
76404;BME280;65232;48.358;2.122;2023-10-19T02:24:15;98689.28;;;15.16;100.00
76404;BME280;65232;48.358;2.122;2023-10-19T02:24:41;98681.19;;;15.16;100.00
76404;BME280;65232;48.358;2.122;2023-10-19T02:25:07;98678.69;;;15.21;100.00
76404;BME280;65232;48.358;2.122;2023-10-19T02:25:34;98688.84;;;15.19;100.00
76404;BME280;65232;48.358;2.122;2023-10-19T02:26:02;98677.88;;;15.21;100.00
76404;BME280;65232;48.358;2.122;2023-10-19T02:26:28;98684.09;;;15.28;100.00
76404;BME280;65232;48.358;2.122;2023-10-19T02:26:57;98676.44;;;15.25;100.00
76404;BME280;65232;48.358;2.122;2023-10-19T02:27:23;98677.47;;;15.17;100.00
76404;BME280;65232;48.358;2.122;2023-10-19T02:27:48;98675.59;;;15.17;100.00
76404;BME280;65232;48.358;2.122;2023-10-19T02:28:13;98673.09;;;15.16;100.00
76404;BME280;65232;48.358;2.122;2023-10-19T02:28:39;98673.31;;;15.14;100.00
76404;BME280;65232;48.358;2.122;2023-10-19T02:29:05;98673.72;;;15.18;100.00
76404;BME280;65232;48.358;2.122;2023-10-19T02:29:34;98671.47;;;15.08;100.00
76404;BME280;65232;48.358;2.122;2023-10-19T02:30:01;98667.53;;;15.04;100.00
76404;BME280;65232;48.358;2.122;2023-10-19T02:30:28;98667.31;;;15.06;100.00
76404;BME280;65232;48.358;2.122;2023-10-19T02:30:56;98669.38;;;15.04;100.00
76404;BME280;65232;48.358;2.122;2023-10-19T02:31:22;98672.50;;;15.01;100.00
76404;BME280;65232;48.358;2.122;2023-10-19T02:31:49;98666.06;;;15.02;100.00
76404;BME280;65232;48.358;2.122;2023-10-19T02:32:19;98669.78;;;15.01;100.00
76404;BME280;65232;48.358;2.122;2023-10-19T02:32:44;98666.06;;;15.08;100.00